KMLP

Mullan Pass Vor Airport

Mullan Pass, Idaho, USA
METAR KMLP 211540Z AUTO 34004KT 3/4SM HZ VV001 M05/M09 A2979 RMK AO2 T10501089 $
Observed Flight Rules
Jan-21 @ 15:40 UTC (18 minutes ago) Instrument Flight Rules
Wind Visibility Clouds Conditions
340° at 4 knots 3/4 miles
  • Vertical visibility at 100' AGL
  • Haze
Temperatures Readings
Current -5°C / 23°F
Dewpoint -9°C / 16°F
Humidity 74%
Altimeter 29.79" Hg
Pressure 1008.82 hPa
Elevation 1837
METAR KMLP 211540Z AUTO 34004KT 3/4SM HZ VV001 M05/M09 A2979 RMK AO2 T10501089 $
Observed Flight Rules
Jan-21 @ 15:40 UTC
(18 minutes ago)
LIFR
Wind Visibility
340° at 4 knots 3/4 miles
Clouds
  • Vertical visibility at 100' AGL
Conditions
  • Haze
Temperature Dewpoint
-5°C / 23°F -9°C / 16°F
Humidity Altimeter Pressure
74% 29.79" Hg 1008.82 hPa